Time;durP1;ratioP1;P1;durP2;ratioP2;P2;SDS_P1;SDS_P2;PMS_P1;PMS_P2;Temp;Humidity;BMP_temperature;BMP_pressure;BME280_temperature;BME280_humidity;BME280_pressure;Samples;Min_cycle;Max_cycle;Signal;HPM_P1;HPM_P2
2022/10/01 00:00:33;;;;;;;;;;;11.40;99.90;;;;;;4984331;28;19925;-76
2022/10/01 00:02:59;;;;;;;;;;;11.30;99.90;;;;;;4985768;28;20016;-76
2022/10/01 00:05:25;;;;;;;;;;;11.30;99.90;;;;;;4985732;28;19926;-76
2022/10/01 00:07:50;;;;;;;;;;;11.30;99.90;;;;;;4985082;28;19926;-76
2022/10/01 00:10:16;;;;;;;;;;;11.30;99.90;;;;;;4984769;28;19934;-76
2022/10/01 00:12:46;;;;;;;;;;;11.30;99.90;;;;;;5000032;28;20026;-76
2022/10/01 00:15:13;;;;;;;;;;;11.30;99.90;;;;;;4999386;28;19926;-76
2022/10/01 00:17:38;;;;;;;;;;;11.30;99.90;;;;;;4985027;28;19972;-77
2022/10/01 00:20:04;;;;;;;;;;;11.30;99.90;;;;;;4983754;28;19929;-77
2022/10/01 00:22:31;;;;;;;;;;;11.20;99.90;;;;;;4984994;28;19930;-78
2022/10/01 00:24:58;;;;;;;;;;;11.30;99.90;;;;;;4985396;28;19965;-77
2022/10/01 00:27:24;;;;;;;;;;;11.30;99.90;;;;;;4985484;28;19925;-77
2022/10/01 00:29:49;;;;;;;;;;;11.20;99.90;;;;;;4967102;28;20311;-77
2022/10/01 00:32:15;;;;;;;;;;;11.30;99.90;;;;;;4985304;28;19976;-77
2022/10/01 00:34:40;;;;;;;;;;;11.20;99.90;;;;;;4984982;28;20292;-77
2022/10/01 00:37:09;;;;;;;;;;;11.20;99.90;;;;;;4988836;28;19976;-77
2022/10/01 00:39:35;;;;;;;;;;;11.20;99.90;;;;;;4987035;28;19926;-77
2022/10/01 00:42:01;;;;;;;;;;;11.20;99.90;;;;;;4988181;28;19949;-78
2022/10/01 00:44:31;;;;;;;;;;;11.20;99.90;;;;;;4972416;28;19930;-78
2022/10/01 00:47:01;;;;;;;;;;;11.20;99.90;;;;;;4984708;28;19931;-77
2022/10/01 00:49:28;;;;;;;;;;;11.10;99.90;;;;;;4989092;28;19936;-77
2022/10/01 00:51:58;;;;;;;;;;;11.20;99.90;;;;;;4988836;28;20392;-77
2022/10/01 00:54:42;;;;;;;;;;;11.10;99.90;;;;;;4988652;28;19926;-76
2022/10/01 00:57:07;;;;;;;;;;;11.10;99.90;;;;;;4988865;28;19966;-77
2022/10/01 00:59:34;;;;;;;;;;;11.10;99.90;;;;;;4987252;28;19926;-77
2022/10/01 01:01:59;;;;;;;;;;;11.10;99.90;;;;;;4988753;28;19926;-77
2022/10/01 01:04:25;;;;;;;;;;;11.10;99.90;;;;;;4988726;28;19933;-77
2022/10/01 01:06:56;;;;;;;;;;;11.10;99.90;;;;;;4987407;28;19944;-77
2022/10/01 01:09:29;;;;;;;;;;;11.10;99.90;;;;;;4988365;28;19933;-77
2022/10/01 01:12:13;;;;;;;;;;;11.10;99.90;;;;;;4988810;28;19989;-77
2022/10/01 01:14:42;;;;;;;;;;;11.10;99.90;;;;;;4986020;28;20393;-77
2022/10/01 01:17:11;;;;;;;;;;;11.00;99.90;;;;;;4987274;28;19926;-77
2022/10/01 01:19:39;;;;;;;;;;;11.10;99.90;;;;;;4987966;28;19934;-77
2022/10/01 01:22:06;;;;;;;;;;;11.00;99.90;;;;;;4988392;28;20424;-77
2022/10/01 01:24:50;;;;;;;;;;;11.00;99.90;;;;;;4987823;28;19925;-77
2022/10/01 01:27:27;;;;;;;;;;;11.00;99.90;;;;;;4986886;28;19926;-77
2022/10/01 01:30:03;;;;;;;;;;;11.00;99.90;;;;;;4987107;28;20024;-77
2022/10/01 01:32:31;;;;;;;;;;;11.00;99.90;;;;;;4988403;28;20349;-77
2022/10/01 01:35:01;;;;;;;;;;;11.00;99.90;;;;;;4988094;28;19937;-77
2022/10/01 01:37:29;;;;;;;;;;;11.00;99.90;;;;;;4987006;28;19929;-77
2022/10/01 01:39:55;;;;;;;;;;;11.00;99.90;;;;;;4988258;28;19926;-77
2022/10/01 01:42:25;;;;;;;;;;;11.00;99.90;;;;;;4988191;28;20016;-77
2022/10/01 01:44:52;;;;;;;;;;;11.00;99.90;;;;;;4986833;28;19932;-77
2022/10/01 01:47:20;;;;;;;;;;;11.00;99.90;;;;;;4986535;28;19933;-77
2022/10/01 01:49:49;;;;;;;;;;;11.00;99.90;;;;;;4979468;28;20021;-77
2022/10/01 01:52:16;;;;;;;;;;;11.00;99.90;;;;;;4968518;28;19934;-77
2022/10/01 01:54:43;;;;;;;;;;;11.00;99.90;;;;;;4968102;28;19935;-77
2022/10/01 01:57:11;;;;;;;;;;;11.00;99.90;;;;;;4973007;28;19972;-77
2022/10/01 01:59:38;;;;;;;;;;;11.00;99.90;;;;;;4978559;28;19933;-77
2022/10/01 02:02:05;;;;;;;;;;;11.00;99.90;;;;;;4968123;28;19926;-77
2022/10/01 02:04:42;;;;;;;;;;;11.00;99.90;;;;;;4977779;28;19926;-77
2022/10/01 02:07:07;;;;;;;;;;;11.00;99.90;;;;;;4987501;28;19926;-77
2022/10/01 02:09:35;;;;;;;;;;;11.00;99.90;;;;;;4986865;28;20369;-77
2022/10/01 02:12:16;;;;;;;;;;;11.00;99.90;;;;;;4987212;28;19948;-78
2022/10/01 02:14:49;;;;;;;;;;;11.00;99.90;;;;;;4986099;28;19925;-77
2022/10/01 02:17:28;;;;;;;;;;;11.00;99.90;;;;;;4986771;28;19930;-77
2022/10/01 02:19:57;;;;;;;;;;;11.00;99.90;;;;;;4987107;28;19925;-77
2022/10/01 02:22:26;;;;;;;;;;;11.10;99.90;;;;;;4985576;28;20462;-77
2022/10/01 02:24:56;;;;;;;;;;;11.10;99.90;;;;;;4985294;28;20443;-77
2022/10/01 02:27:30;;;;;;;;;;;11.10;99.90;;;;;;4980945;28;19961;-77
2022/10/01 02:29:57;;;;;;;;;;;11.10;99.90;;;;;;4978280;28;19925;-77
2022/10/01 02:32:24;;;;;;;;;;;11.10;99.90;;;;;;5002000;28;20018;-77
2022/10/01 02:34:50;;;;;;;;;;;11.10;99.90;;;;;;4985233;28;19934;-77
2022/10/01 02:37:18;;;;;;;;;;;11.10;99.90;;;;;;4986950;28;19928;-77
2022/10/01 02:39:45;;;;;;;;;;;11.10;99.90;;;;;;4986732;28;19980;-76
2022/10/01 02:42:12;;;;;;;;;;;11.20;99.90;;;;;;4985241;28;19926;-77
2022/10/01 02:44:41;;;;;;;;;;;11.10;99.90;;;;;;4985636;28;20016;-77
2022/10/01 02:47:19;;;;;;;;;;;11.20;99.90;;;;;;4986678;28;19930;-76
2022/10/01 02:49:45;;;;;;;;;;;11.20;99.90;;;;;;4986217;28;19981;-77
2022/10/01 02:52:30;;;;;;;;;;;11.20;99.90;;;;;;4985889;28;19933;-77
2022/10/01 02:55:03;;;;;;;;;;;11.20;99.90;;;;;;4986961;28;20020;-77
2022/10/01 02:57:31;;;;;;;;;;;11.20;99.90;;;;;;4984858;28;20548;-77
2022/10/01 02:59:58;;;;;;;;;;;11.20;99.90;;;;;;4985850;28;19973;-77
2022/10/01 03:02:26;;;;;;;;;;;11.20;99.90;;;;;;4986467;28;20009;-77
2022/10/01 03:04:56;;;;;;;;;;;11.30;99.90;;;;;;4986155;28;20289;-77
2022/10/01 03:07:21;;;;;;;;;;;11.30;99.90;;;;;;4986007;28;19933;-77
2022/10/01 03:09:48;;;;;;;;;;;11.30;99.90;;;;;;4986083;28;19922;-77
2022/10/01 03:12:15;;;;;;;;;;;11.30;99.90;;;;;;4979443;28;19973;-77
2022/10/01 03:14:43;;;;;;;;;;;11.30;99.90;;;;;;4962356;28;19926;-77
2022/10/01 03:17:08;;;;;;;;;;;11.30;99.90;;;;;;4986178;28;19926;-77
2022/10/01 03:19:34;;;;;;;;;;;11.30;99.90;;;;;;4985812;28;19926;-77
2022/10/01 03:21:59;;;;;;;;;;;11.30;99.90;;;;;;5001228;28;20351;-78
2022/10/01 03:24:25;;;;;;;;;;;11.40;99.90;;;;;;4986494;28;20377;-77
2022/10/01 03:26:50;;;;;;;;;;;11.40;99.90;;;;;;4991478;28;20028;-77
2022/10/01 03:29:16;;;;;;;;;;;11.40;99.90;;;;;;4985094;28;19984;-77
2022/10/01 03:31:41;;;;;;;;;;;11.40;99.90;;;;;;4985692;28;19926;-77
2022/10/01 03:34:07;;;;;;;;;;;11.50;99.90;;;;;;4985840;28;19925;-77
2022/10/01 03:36:33;;;;;;;;;;;11.40;99.90;;;;;;4985278;28;19930;-77
2022/10/01 03:38:58;;;;;;;;;;;11.50;99.90;;;;;;4986049;28;19926;-77
2022/10/01 03:41:24;;;;;;;;;;;11.50;99.90;;;;;;4984754;28;19934;-77
2022/10/01 03:43:49;;;;;;;;;;;11.50;99.90;;;;;;4972227;28;19976;-77
2022/10/01 03:46:15;;;;;;;;;;;11.50;99.90;;;;;;4984522;28;19926;-77
2022/10/01 03:48:40;;;;;;;;;;;11.50;99.90;;;;;;4985286;28;19925;-77
2022/10/01 03:51:06;;;;;;;;;;;11.50;99.90;;;;;;4985438;28;20444;-77
2022/10/01 03:53:31;;;;;;;;;;;11.50;99.90;;;;;;4985432;28;19930;-78
2022/10/01 03:55:57;;;;;;;;;;;11.50;99.90;;;;;;4985791;28;19935;-77
2022/10/01 03:58:22;;;;;;;;;;;11.50;99.90;;;;;;4984978;28;19925;-77
2022/10/01 04:00:48;;;;;;;;;;;11.50;99.90;;;;;;4984078;28;19926;-77
2022/10/01 04:03:14;;;;;;;;;;;11.60;99.90;;;;;;4985774;28;19926;-77
2022/10/01 04:05:44;;;;;;;;;;;11.60;99.90;;;;;;4985533;28;20305;-77
2022/10/01 04:08:10;;;;;;;;;;;11.60;99.90;;;;;;4983830;28;20020;-76
2022/10/01 04:10:35;;;;;;;;;;;11.70;99.90;;;;;;4965618;28;19926;-76
2022/10/01 04:13:01;;;;;;;;;;;11.70;99.90;;;;;;4985858;28;20049;-77
2022/10/01 04:15:27;;;;;;;;;;;11.70;99.90;;;;;;4966515;28;19927;-77
2022/10/01 04:17:52;;;;;;;;;;;11.70;99.90;;;;;;4983591;28;19941;-77
2022/10/01 04:20:18;;;;;;;;;;;11.70;99.90;;;;;;4985415;28;19932;-77
2022/10/01 04:22:45;;;;;;;;;;;11.70;99.90;;;;;;4985110;28;19926;-77
2022/10/01 04:25:10;;;;;;;;;;;11.80;99.90;;;;;;4984985;28;19988;-78
2022/10/01 04:27:36;;;;;;;;;;;11.80;99.90;;;;;;4983762;28;20034;-77
2022/10/01 04:30:03;;;;;;;;;;;11.80;99.90;;;;;;4984658;28;19966;-78
2022/10/01 04:32:28;;;;;;;;;;;11.80;99.90;;;;;;4985061;28;19925;-77
2022/10/01 04:34:54;;;;;;;;;;;11.80;99.90;;;;;;4983318;28;19926;-77
2022/10/01 04:37:20;;;;;;;;;;;11.90;99.90;;;;;;4983971;28;20395;-77
2022/10/01 04:39:46;;;;;;;;;;;11.90;99.90;;;;;;4984643;28;20389;-77
2022/10/01 04:42:12;;;;;;;;;;;11.90;99.90;;;;;;4985110;28;19957;-77
2022/10/01 04:44:38;;;;;;;;;;;11.90;99.90;;;;;;4984234;28;19926;-78
2022/10/01 04:47:03;;;;;;;;;;;11.90;99.90;;;;;;4985079;28;19929;-78
2022/10/01 04:49:31;;;;;;;;;;;12.00;99.90;;;;;;4985842;28;19941;-77
2022/10/01 04:51:56;;;;;;;;;;;11.90;99.90;;;;;;5000932;28;19930;-77
2022/10/01 04:54:22;;;;;;;;;;;11.90;99.90;;;;;;4985042;28;20012;-77
2022/10/01 04:56:47;;;;;;;;;;;12.00;99.90;;;;;;4977630;28;20366;-77
2022/10/01 04:59:12;;;;;;;;;;;12.00;99.90;;;;;;4992517;28;19925;-78
2022/10/01 05:01:39;;;;;;;;;;;12.00;99.90;;;;;;4984538;28;20402;-78
2022/10/01 05:04:04;;;;;;;;;;;12.00;99.90;;;;;;4983774;28;19926;-78
2022/10/01 05:06:30;;;;;;;;;;;12.00;99.90;;;;;;4984043;28;20415;-78
2022/10/01 05:08:55;;;;;;;;;;;12.00;99.90;;;;;;5000513;28;20614;-78
2022/10/01 05:11:21;;;;;;;;;;;12.00;99.90;;;;;;4984664;28;19933;-78
2022/10/01 05:13:46;;;;;;;;;;;12.00;99.90;;;;;;4983719;28;20016;-78
2022/10/01 05:16:12;;;;;;;;;;;12.00;99.90;;;;;;4984797;28;19932;-78
2022/10/01 05:18:39;;;;;;;;;;;12.00;99.90;;;;;;4984440;28;19926;-77
2022/10/01 05:21:05;;;;;;;;;;;12.00;99.90;;;;;;4985826;28;19926;-78
2022/10/01 05:23:32;;;;;;;;;;;12.00;99.90;;;;;;4988061;28;20450;-78
2022/10/01 05:25:57;;;;;;;;;;;12.00;99.90;;;;;;4988594;28;19980;-78
2022/10/01 05:28:23;;;;;;;;;;;12.00;99.90;;;;;;4988111;28;19926;-78
2022/10/01 05:30:49;;;;;;;;;;;12.00;99.90;;;;;;4985612;28;19930;-77
2022/10/01 05:33:15;;;;;;;;;;;12.00;99.90;;;;;;4987863;28;19930;-77
2022/10/01 05:35:41;;;;;;;;;;;12.00;99.90;;;;;;4987226;28;19926;-77
2022/10/01 05:38:06;;;;;;;;;;;12.00;99.90;;;;;;4988013;28;19926;-78
2022/10/01 05:40:32;;;;;;;;;;;12.00;99.90;;;;;;4970005;28;20339;-78
2022/10/01 05:42:58;;;;;;;;;;;12.00;99.90;;;;;;4986857;28;19976;-77
2022/10/01 05:45:26;;;;;;;;;;;12.00;99.90;;;;;;4986888;28;19922;-78
2022/10/01 05:47:55;;;;;;;;;;;12.00;99.90;;;;;;4987614;28;19926;-77
2022/10/01 05:50:20;;;;;;;;;;;12.10;99.90;;;;;;4987883;28;19928;-77
2022/10/01 05:52:46;;;;;;;;;;;12.00;99.90;;;;;;4986549;28;20359;-77
2022/10/01 05:55:12;;;;;;;;;;;12.10;99.90;;;;;;4987287;28;19926;-78
2022/10/01 05:57:37;;;;;;;;;;;12.10;99.90;;;;;;4985666;28;20391;-78
2022/10/01 06:00:04;;;;;;;;;;;12.10;99.90;;;;;;4986669;28;20590;-78
2022/10/01 06:02:29;;;;;;;;;;;12.10;99.90;;;;;;4986212;28;19933;-79
2022/10/01 06:04:54;;;;;;;;;;;12.00;99.90;;;;;;4987799;28;20292;-77
2022/10/01 06:07:20;;;;;;;;;;;12.00;99.90;;;;;;4987324;28;19972;-78
2022/10/01 06:09:45;;;;;;;;;;;12.00;99.90;;;;;;4986774;28;19929;-78
2022/10/01 06:12:11;;;;;;;;;;;12.10;99.90;;;;;;4987536;28;20012;-77
2022/10/01 06:14:36;;;;;;;;;;;12.10;99.90;;;;;;4986437;28;20330;-78
2022/10/01 06:17:02;;;;;;;;;;;12.10;99.90;;;;;;4987048;28;20016;-78
2022/10/01 06:19:27;;;;;;;;;;;12.10;99.90;;;;;;4987228;28;19926;-78
2022/10/01 06:21:53;;;;;;;;;;;12.10;99.90;;;;;;4986018;28;19926;-77
2022/10/01 06:24:18;;;;;;;;;;;12.10;99.90;;;;;;5002175;28;19933;-78
2022/10/01 06:26:44;;;;;;;;;;;12.10;99.90;;;;;;4984827;28;20008;-78
2022/10/01 06:29:09;;;;;;;;;;;12.10;99.90;;;;;;4968329;28;20435;-78
2022/10/01 06:31:35;;;;;;;;;;;12.10;99.90;;;;;;4986830;28;20257;-78
2022/10/01 06:34:00;;;;;;;;;;;12.10;99.90;;;;;;4985303;28;19925;-79
2022/10/01 06:36:26;;;;;;;;;;;12.10;99.90;;;;;;4987107;28;20561;-77
2022/10/01 06:38:52;;;;;;;;;;;12.20;99.90;;;;;;4986237;28;19929;-77
2022/10/01 06:41:17;;;;;;;;;;;12.20;99.90;;;;;;4984895;28;19977;-77
2022/10/01 06:43:43;;;;;;;;;;;12.20;99.90;;;;;;4983661;28;19929;-76
2022/10/01 06:46:09;;;;;;;;;;;12.30;99.90;;;;;;4983645;28;19972;-77
2022/10/01 06:48:35;;;;;;;;;;;12.30;99.90;;;;;;4985495;28;20413;-77
2022/10/01 06:51:01;;;;;;;;;;;12.30;99.90;;;;;;4985777;28;19933;-78
2022/10/01 06:53:27;;;;;;;;;;;12.30;99.90;;;;;;4985837;28;19930;-77
2022/10/01 06:55:53;;;;;;;;;;;12.30;99.90;;;;;;4982525;28;20056;-78
2022/10/01 06:58:23;;;;;;;;;;;12.30;99.90;;;;;;4984732;28;20382;-77
2022/10/01 07:00:48;;;;;;;;;;;12.30;99.90;;;;;;4979704;28;19988;-77
2022/10/01 07:03:18;;;;;;;;;;;12.30;99.90;;;;;;4984325;28;19925;-77
2022/10/01 07:05:44;;;;;;;;;;;12.30;99.90;;;;;;4966659;28;19926;-76
2022/10/01 07:08:10;;;;;;;;;;;12.30;99.90;;;;;;4985199;28;19926;-77
2022/10/01 07:10:36;;;;;;;;;;;12.30;99.90;;;;;;4984170;28;19934;-78
2022/10/01 07:13:09;;;;;;;;;;;12.30;99.90;;;;;;4984276;28;20191;-78
2022/10/01 07:15:35;;;;;;;;;;;12.30;99.90;;;;;;4981911;28;19926;-75
2022/10/01 07:18:01;;;;;;;;;;;12.40;99.90;;;;;;4985054;28;20447;-75
2022/10/01 07:20:27;;;;;;;;;;;12.40;99.90;;;;;;4985112;28;20025;-75
2022/10/01 07:22:56;;;;;;;;;;;12.40;99.90;;;;;;4984364;28;20298;-75
2022/10/01 07:25:21;;;;;;;;;;;12.40;99.90;;;;;;4985324;28;19933;-75
2022/10/01 07:27:47;;;;;;;;;;;12.50;99.90;;;;;;4985575;28;19925;-76
2022/10/01 07:30:12;;;;;;;;;;;12.50;99.90;;;;;;4983932;28;19972;-76
2022/10/01 07:32:38;;;;;;;;;;;12.50;99.90;;;;;;4985299;28;20439;-75
2022/10/01 07:35:04;;;;;;;;;;;12.60;99.90;;;;;;4983031;28;19929;-75
2022/10/01 07:37:30;;;;;;;;;;;12.60;99.90;;;;;;4984853;28;19926;-76
2022/10/01 07:39:56;;;;;;;;;;;12.60;99.90;;;;;;4985064;28;19930;-75
2022/10/01 07:42:21;;;;;;;;;;;12.70;99.90;;;;;;4984398;28;20375;-75
2022/10/01 07:44:46;;;;;;;;;;;12.70;99.90;;;;;;4977537;28;20244;-77
2022/10/01 07:47:13;;;;;;;;;;;12.80;99.90;;;;;;4984836;28;19993;-77
2022/10/01 07:49:39;;;;;;;;;;;12.70;99.90;;;;;;4980973;28;20273;-75
2022/10/01 07:52:05;;;;;;;;;;;12.90;99.90;;;;;;4986934;28;19933;-75
2022/10/01 07:54:30;;;;;;;;;;;13.00;99.90;;;;;;4985000;28;19976;-75
2022/10/01 07:56:56;;;;;;;;;;;13.10;99.90;;;;;;4984638;28;19952;-75
2022/10/01 07:59:22;;;;;;;;;;;13.30;99.90;;;;;;4983550;28;20397;-74
2022/10/01 08:01:48;;;;;;;;;;;13.30;99.90;;;;;;5000146;28;19973;-74
2022/10/01 08:06:58;;;;;;;;;;;13.40;99.90;;;;;;4982653;28;19972;-73
2022/10/01 08:09:23;;;;;;;;;;;13.50;99.90;;;;;;4984866;28;19929;-79
2022/10/01 08:11:49;;;;;;;;;;;13.50;99.90;;;;;;4983648;28;19930;-78
2022/10/01 08:14:17;;;;;;;;;;;13.50;99.90;;;;;;4983361;28;19926;-76
2022/10/01 08:16:43;;;;;;;;;;;13.50;99.90;;;;;;4984402;28;19926;-74
2022/10/01 08:19:09;;;;;;;;;;;13.40;99.90;;;;;;4985886;28;19933;-77
2022/10/01 08:21:35;;;;;;;;;;;13.40;99.90;;;;;;4981602;28;20336;-76
2022/10/01 08:24:01;;;;;;;;;;;13.30;99.90;;;;;;4992388;28;19937;-76
2022/10/01 08:26:27;;;;;;;;;;;13.30;99.90;;;;;;4990705;28;19945;-75
2022/10/01 08:28:52;;;;;;;;;;;13.20;99.90;;;;;;4979953;28;19941;-74
2022/10/01 08:31:18;;;;;;;;;;;13.20;99.90;;;;;;4980296;28;20439;-74
2022/10/01 08:33:44;;;;;;;;;;;13.20;99.90;;;;;;4982103;28;19933;-75
2022/10/01 08:36:09;;;;;;;;;;;13.20;99.90;;;;;;4984632;28;20376;-76
2022/10/01 08:38:35;;;;;;;;;;;13.20;99.90;;;;;;4982650;28;19933;-73
2022/10/01 08:41:20;;;;;;;;;;;13.20;99.90;;;;;;4984317;28;19926;-74
2022/10/01 08:43:46;;;;;;;;;;;13.20;99.90;;;;;;4983023;28;19930;-74
2022/10/01 08:46:13;;;;;;;;;;;13.20;99.90;;;;;;4984373;28;19933;-75
2022/10/01 08:48:42;;;;;;;;;;;13.10;99.90;;;;;;4984074;28;19929;-75
2022/10/01 08:51:15;;;;;;;;;;;13.10;99.90;;;;;;4984371;28;20039;-75
2022/10/01 08:53:40;;;;;;;;;;;13.10;99.90;;;;;;4984324;28;19926;-75
2022/10/01 08:56:12;;;;;;;;;;;13.10;99.90;;;;;;4985143;28;20380;-75
2022/10/01 08:58:42;;;;;;;;;;;13.10;99.90;;;;;;4987024;28;19926;-75
2022/10/01 09:01:09;;;;;;;;;;;13.10;99.90;;;;;;4986734;28;19932;-74
2022/10/01 09:03:35;;;;;;;;;;;13.30;99.90;;;;;;4987572;28;19988;-75
2022/10/01 09:06:17;;;;;;;;;;;13.30;99.90;;;;;;4988036;28;19929;-75
2022/10/01 09:09:05;;;;;;;;;;;13.40;99.90;;;;;;4987792;28;20546;-75
2022/10/01 09:11:50;;;;;;;;;;;13.30;99.90;;;;;;4987916;28;20499;-74
2022/10/01 09:14:44;;;;;;;;;;;13.30;99.90;;;;;;4985658;28;20014;-75
2022/10/01 09:17:19;;;;;;;;;;;13.30;99.90;;;;;;4986252;28;20446;-74
2022/10/01 09:20:20;;;;;;;;;;;13.10;99.90;;;;;;4985555;28;19976;-75
2022/10/01 09:22:56;;;;;;;;;;;13.00;99.90;;;;;;5003987;28;19929;-74
2022/10/01 09:25:23;;;;;;;;;;;12.80;99.90;;;;;;4990181;28;19961;-74
2022/10/01 09:27:50;;;;;;;;;;;12.80;99.90;;;;;;4987534;28;19949;-74
2022/10/01 09:30:17;;;;;;;;;;;12.70;99.90;;;;;;4985200;28;19929;-74
2022/10/01 09:32:52;;;;;;;;;;;12.70;99.90;;;;;;4987114;28;19926;-74
2022/10/01 09:35:21;;;;;;;;;;;12.60;99.90;;;;;;4987169;28;19928;-74
2022/10/01 09:37:51;;;;;;;;;;;12.60;99.90;;;;;;4987485;28;19969;-74
2022/10/01 09:40:25;;;;;;;;;;;12.60;99.90;;;;;;4987246;28;19948;-74
2022/10/01 09:42:51;;;;;;;;;;;12.50;99.90;;;;;;4987158;28;20297;-74
2022/10/01 09:45:18;;;;;;;;;;;12.50;99.90;;;;;;4986463;28;19926;-75
2022/10/01 09:47:47;;;;;;;;;;;12.50;99.90;;;;;;4985893;28;19925;-75
2022/10/01 09:50:14;;;;;;;;;;;12.40;99.90;;;;;;4986375;28;20361;-75
2022/10/01 09:52:40;;;;;;;;;;;12.40;99.90;;;;;;4987204;28;19976;-74
2022/10/01 09:55:15;;;;;;;;;;;12.40;99.90;;;;;;4986043;28;20384;-74
2022/10/01 09:57:43;;;;;;;;;;;12.50;99.90;;;;;;4985600;28;19921;-75
2022/10/01 10:00:13;;;;;;;;;;;12.50;99.90;;;;;;4986607;28;19980;-74
2022/10/01 10:02:40;;;;;;;;;;;12.60;99.90;;;;;;4986884;28;19925;-74
2022/10/01 10:05:12;;;;;;;;;;;12.70;99.90;;;;;;4986114;28;20290;-75
2022/10/01 10:07:41;;;;;;;;;;;12.80;99.90;;;;;;4986333;28;20004;-75
2022/10/01 10:10:07;;;;;;;;;;;12.80;99.90;;;;;;4986900;28;19988;-74
2022/10/01 10:12:33;;;;;;;;;;;12.90;99.90;;;;;;4986912;28;20131;-74
2022/10/01 10:15:05;;;;;;;;;;;12.90;99.90;;;;;;4985097;28;20451;-74
2022/10/01 10:17:33;;;;;;;;;;;12.90;99.90;;;;;;4985401;28;19992;-74
2022/10/01 10:19:59;;;;;;;;;;;12.90;99.90;;;;;;4985734;28;19925;-74
2022/10/01 10:22:26;;;;;;;;;;;12.90;99.90;;;;;;4986830;28;19969;-73
2022/10/01 10:24:52;;;;;;;;;;;12.90;99.90;;;;;;4986040;28;20279;-74
2022/10/01 10:27:28;;;;;;;;;;;12.90;99.90;;;;;;4985200;28;19926;-74
2022/10/01 10:30:03;;;;;;;;;;;12.90;99.90;;;;;;4985261;28;20020;-73
2022/10/01 10:32:28;;;;;;;;;;;13.00;99.90;;;;;;4985489;28;19929;-75
2022/10/01 10:34:56;;;;;;;;;;;12.90;99.90;;;;;;4985885;28;20353;-74
2022/10/01 10:37:25;;;;;;;;;;;13.00;99.90;;;;;;4986826;28;20292;-73
2022/10/01 10:39:52;;;;;;;;;;;13.00;99.90;;;;;;4986008;28;19926;-75
2022/10/01 10:42:18;;;;;;;;;;;13.00;99.90;;;;;;4986539;28;20001;-74
2022/10/01 10:44:45;;;;;;;;;;;13.00;99.90;;;;;;4984847;28;19926;-73
2022/10/01 10:47:15;;;;;;;;;;;13.10;99.90;;;;;;4984839;28;19926;-74
2022/10/01 10:49:43;;;;;;;;;;;13.20;99.90;;;;;;4986039;28;19933;-74
2022/10/01 10:52:35;;;;;;;;;;;13.30;99.90;;;;;;4984702;28;20376;-74
2022/10/01 10:55:17;;;;;;;;;;;13.40;99.90;;;;;;4999978;28;20471;-74
2022/10/01 10:57:43;;;;;;;;;;;13.50;99.90;;;;;;4984430;28;20451;-75
2022/10/01 11:00:13;;;;;;;;;;;13.60;99.90;;;;;;4985815;28;20065;-76
2022/10/01 11:02:39;;;;;;;;;;;13.70;99.90;;;;;;4985406;28;20395;-74
2022/10/01 11:05:15;;;;;;;;;;;13.80;99.90;;;;;;4985690;28;19930;-73
2022/10/01 11:07:42;;;;;;;;;;;13.90;99.90;;;;;;4984142;28;19933;-74
2022/10/01 11:10:24;;;;;;;;;;;13.90;99.90;;;;;;4985415;28;19926;-73
2022/10/01 11:13:08;;;;;;;;;;;14.00;99.90;;;;;;4974794;28;19930;-76
2022/10/01 11:15:40;;;;;;;;;;;14.00;99.90;;;;;;4985386;28;19925;-75
2022/10/01 11:18:09;;;;;;;;;;;14.00;99.90;;;;;;4984339;28;20459;-76
2022/10/01 11:20:54;;;;;;;;;;;14.10;99.90;;;;;;4984766;28;19930;-76
2022/10/01 11:23:38;;;;;;;;;;;14.00;99.90;;;;;;4983984;28;19933;-76
2022/10/01 11:26:08;;;;;;;;;;;14.00;99.90;;;;;;4983197;28;19926;-77
2022/10/01 11:28:44;;;;;;;;;;;14.00;99.90;;;;;;4983038;28;19926;-77
2022/10/01 11:31:25;;;;;;;;;;;14.00;99.90;;;;;;4990629;28;19988;-76
2022/10/01 11:34:09;;;;;;;;;;;14.00;99.90;;;;;;4987424;28;19948;-78
2022/10/01 11:36:46;;;;;;;;;;;14.00;99.90;;;;;;4974310;28;20324;-76
2022/10/01 11:39:17;;;;;;;;;;;14.00;99.90;;;;;;4988704;28;20011;-82
2022/10/01 11:41:44;;;;;;;;;;;14.00;99.90;;;;;;4990441;28;20411;-81
2022/10/01 11:44:17;;;;;;;;;;;14.00;99.90;;;;;;5001252;28;19937;-80
2022/10/01 11:46:55;;;;;;;;;;;14.10;99.90;;;;;;4984011;28;20061;-80
2022/10/01 11:49:20;;;;;;;;;;;14.10;99.90;;;;;;4991198;28;19953;-79
2022/10/01 11:51:48;;;;;;;;;;;14.10;99.90;;;;;;4995341;28;19941;-79
2022/10/01 11:54:17;;;;;;;;;;;14.10;99.90;;;;;;4980635;28;19933;-77
2022/10/01 11:59:41;;;;;;;;;;;14.20;99.90;;;;;;4983385;28;20024;-81
2022/10/01 12:02:27;;;;;;;;;;;14.20;99.90;;;;;;4963754;28;19945;-80
2022/10/01 12:05:00;;;;;;;;;;;14.30;99.90;;;;;;5005860;28;19930;-79
2022/10/01 12:07:32;;;;;;;;;;;14.30;99.90;;;;;;4980038;28;19930;-78
2022/10/01 12:10:20;;;;;;;;;;;14.40;99.90;;;;;;4982786;28;19934;-83
2022/10/01 12:13:06;;;;;;;;;;;14.50;99.90;;;;;;4988786;28;19937;-86
2022/10/01 12:15:38;;;;;;;;;;;14.60;99.90;;;;;;4982912;28;20384;-79
2022/10/01 12:18:10;;;;;;;;;;;14.70;99.90;;;;;;4993842;28;20020;-79
2022/10/01 12:20:38;;;;;;;;;;;14.80;99.90;;;;;;4994257;28;20595;-81
2022/10/01 12:23:06;;;;;;;;;;;14.80;99.90;;;;;;4988399;28;20433;-79
2022/10/01 12:25:38;;;;;;;;;;;14.80;99.90;;;;;;4995067;28;19987;-81
2022/10/01 12:28:08;;;;;;;;;;;14.80;99.90;;;;;;5001822;28;19925;-79
2022/10/01 12:30:41;;;;;;;;;;;14.70;99.90;;;;;;4989904;28;20280;-80
2022/10/01 12:33:18;;;;;;;;;;;14.60;99.90;;;;;;5003473;28;20548;-84
2022/10/01 12:35:53;;;;;;;;;;;14.60;99.90;;;;;;4996316;28;19925;-79
2022/10/01 12:38:32;;;;;;;;;;;14.50;99.90;;;;;;4994608;28;20147;-77
2022/10/01 12:41:13;;;;;;;;;;;14.40;99.90;;;;;;4987918;28;19960;-81
2022/10/01 12:43:46;;;;;;;;;;;14.30;99.90;;;;;;4986999;28;19969;-77
2022/10/01 12:46:11;;;;;;;;;;;14.30;99.90;;;;;;4987444;28;20004;-78
2022/10/01 12:48:56;;;;;;;;;;;14.30;99.90;;;;;;4986574;28;20008;-83
2022/10/01 12:51:45;;;;;;;;;;;14.40;99.90;;;;;;4986949;28;19926;-80
2022/10/01 12:54:34;;;;;;;;;;;14.40;99.90;;;;;;4986932;28;20016;-77
2022/10/01 12:57:16;;;;;;;;;;;14.50;99.90;;;;;;5003516;28;20479;-82
2022/10/01 12:59:49;;;;;;;;;;;14.50;99.90;;;;;;4986559;28;19946;-79
2022/10/01 13:02:45;;;;;;;;;;;14.50;99.90;;;;;;5003219;28;20313;-79
2022/10/01 13:05:18;;;;;;;;;;;14.60;99.90;;;;;;4986218;28;19971;-80
2022/10/01 13:07:45;;;;;;;;;;;14.60;99.90;;;;;;4986137;28;19922;-80
2022/10/01 13:10:11;;;;;;;;;;;14.60;99.90;;;;;;4987203;28;20399;-78
2022/10/01 13:12:36;;;;;;;;;;;14.50;99.90;;;;;;4986543;28;19952;-78
2022/10/01 13:15:03;;;;;;;;;;;14.50;99.90;;;;;;4987243;28;19930;-79
2022/10/01 13:17:41;;;;;;;;;;;14.50;99.90;;;;;;4986417;28;19926;-80
2022/10/01 13:20:14;;;;;;;;;;;14.50;99.90;;;;;;4987659;28;19972;-77
2022/10/01 13:22:44;;;;;;;;;;;14.50;99.90;;;;;;4987325;28;20073;-77
2022/10/01 13:25:18;;;;;;;;;;;14.60;99.90;;;;;;4985824;28;19925;-77
2022/10/01 13:28:07;;;;;;;;;;;14.60;99.90;;;;;;4986449;28;19930;-78
2022/10/01 13:30:51;;;;;;;;;;;14.60;99.90;;;;;;4985361;28;19971;-78
2022/10/01 13:33:25;;;;;;;;;;;14.70;99.90;;;;;;4986719;28;19926;-77
2022/10/01 13:35:58;;;;;;;;;;;14.80;99.90;;;;;;4986918;28;19936;-77
2022/10/01 13:38:29;;;;;;;;;;;14.90;99.90;;;;;;4987399;28;19926;-77
2022/10/01 13:40:55;;;;;;;;;;;14.90;99.90;;;;;;4986181;28;19996;-78
2022/10/01 13:43:21;;;;;;;;;;;14.90;99.90;;;;;;4985344;28;19933;-78
2022/10/01 13:45:48;;;;;;;;;;;14.90;99.90;;;;;;4986180;28;20280;-77
2022/10/01 13:48:14;;;;;;;;;;;14.90;99.90;;;;;;4986951;28;19929;-78
2022/10/01 13:50:40;;;;;;;;;;;14.80;99.90;;;;;;4985616;28;19925;-77
2022/10/01 13:53:16;;;;;;;;;;;14.80;99.90;;;;;;4985982;28;19930;-78
2022/10/01 13:55:42;;;;;;;;;;;14.90;99.90;;;;;;4986864;28;20363;-78
2022/10/01 13:58:20;;;;;;;;;;;14.90;99.90;;;;;;4986183;28;19968;-78
2022/10/01 14:00:49;;;;;;;;;;;14.90;99.90;;;;;;4985653;28;20008;-78
2022/10/01 14:03:34;;;;;;;;;;;14.90;99.90;;;;;;4987095;28;19926;-78
2022/10/01 14:06:02;;;;;;;;;;;14.90;99.90;;;;;;4969377;28;19961;-78
2022/10/01 14:08:27;;;;;;;;;;;14.90;99.90;;;;;;4987433;28;20502;-78
2022/10/01 14:16:30;;;;;;;;;;;14.80;99.90;;;;;;4987446;28;19926;-78
2022/10/01 14:18:55;;;;;;;;;;;14.80;99.90;;;;;;4985451;28;19930;-78
2022/10/01 14:21:24;;;;;;;;;;;14.80;99.90;;;;;;4986947;28;20553;-78
2022/10/01 14:24:08;;;;;;;;;;;14.80;99.90;;;;;;4986509;28;20040;-78
2022/10/01 14:26:40;;;;;;;;;;;14.80;99.90;;;;;;4965474;28;19926;-78
2022/10/01 14:29:08;;;;;;;;;;;14.80;99.90;;;;;;4964824;28;20060;-78
2022/10/01 14:31:49;;;;;;;;;;;14.80;99.90;;;;;;4949315;28;19960;-78
2022/10/01 14:34:20;;;;;;;;;;;14.70;99.90;;;;;;4965984;28;20028;-78
2022/10/01 14:36:47;;;;;;;;;;;14.70;99.90;;;;;;4966355;28;20400;-78
2022/10/01 14:39:12;;;;;;;;;;;14.70;99.90;;;;;;4965322;28;19996;-78